TCA7013 SVMI-SVBM
Flight info
| Callsign | TCA7013 |
|---|---|
| Flight time | 0h 37m |
| Altitude | 26000 |
| Route | MARES1 MARES DCT ATONO DCT PBL DCT SPE DCT GUARO |
| Aircraft | A319/M-SDE3FGHIRWY/LB1 |
Departure
| Time | 2026-04-26 18:15 |
|---|---|
| Airport | Maiquetía Simón Bolívar International Airport (SVMI) |
Arrival
| Time | 2026-04-26 18:53 |
|---|---|
| Airport | Jacinto Lara International Airport (SVBM) |
| Time | Latitude | Longitude | Altitude | Speed | Heading |
|---|---|---|---|---|---|
| 2026-04-26 17:49 | 10.59830 | -67.00011 | 221 ft | 0 kts | 178° |
| 2026-04-26 18:02 | 10.59831 | -67.00011 | 221 ft | 0 kts | 178° |
| 2026-04-26 18:07 | 10.59836 | -67.00011 | 221 ft | 4 kts | 177° |
| 2026-04-26 18:07 | 10.59853 | -67.00013 | 221 ft | 4 kts | 158° |
| 2026-04-26 18:08 | 10.59874 | -67.00034 | 221 ft | 2 kts | 89° |
| 2026-04-26 18:08 | 10.59874 | -67.00037 | 221 ft | 0 kts | 88° |
| 2026-04-26 18:11 | 10.59876 | -67.00035 | 221 ft | 0 kts | 61° |
| 2026-04-26 18:11 | 10.59891 | -67.00015 | 221 ft | 9 kts | 53° |
| 2026-04-26 18:11 | 10.59914 | -66.99942 | 220 ft | 13 kts | 84° |
| 2026-04-26 18:12 | 10.59990 | -66.99911 | 219 ft | 14 kts | 356° |
| 2026-04-26 18:12 | 10.60091 | -66.99915 | 218 ft | 13 kts | 2° |
| 2026-04-26 18:12 | 10.60135 | -66.99837 | 220 ft | 16 kts | 88° |
| 2026-04-26 18:12 | 10.60138 | -66.99714 | 210 ft | 17 kts | 95° |
| 2026-04-26 18:13 | 10.60050 | -66.99664 | 224 ft | 15 kts | 179° |
| 2026-04-26 18:13 | 10.59954 | -66.99661 | 219 ft | 14 kts | 178° |
| 2026-04-26 18:13 | 10.59901 | -66.99718 | 222 ft | 8 kts | 257° |
| 2026-04-26 18:13 | 10.59894 | -66.99749 | 223 ft | 6 kts | 255° |
| 2026-04-26 18:14 | 10.59881 | -66.99729 | 222 ft | 6 kts | 83° |
| 2026-04-26 18:14 | 10.59886 | -66.99705 | 221 ft | 0 kts | 76° |
| 2026-04-26 18:14 | 10.59890 | -66.99688 | 220 ft | 13 kts | 76° |
| 2026-04-26 18:15 | 10.59962 | -66.99394 | 202 ft | 73 kts | 76° |
| 2026-04-26 18:15 | 10.60134 | -66.98700 | 180 ft | 128 kts | 76° |
| 2026-04-26 18:15 | 10.60375 | -66.97715 | 490 ft | 144 kts | 76° |
| 2026-04-26 18:15 | 10.60688 | -66.96765 | 1064 ft | 144 kts | 58° |
| 2026-04-26 18:16 | 10.61437 | -66.96081 | 1499 ft | 153 kts | 27° |
| 2026-04-26 18:16 | 10.63774 | -66.96272 | 2011 ft | 199 kts | 325° |
| 2026-04-26 18:16 | 10.64601 | -66.97474 | 2223 ft | 225 kts | 287° |
| 2026-04-26 18:17 | 10.64845 | -66.99144 | 2411 ft | 255 kts | 276° |
| 2026-04-26 18:17 | 10.65146 | -67.00992 | 3011 ft | 273 kts | 282° |
| 2026-04-26 18:17 | 10.65583 | -67.02888 | 3815 ft | 278 kts | 283° |
| 2026-04-26 18:17 | 10.66141 | -67.04773 | 4117 ft | 281 kts | 297° |
| 2026-04-26 18:18 | 10.67241 | -67.06421 | 5052 ft | 282 kts | 307° |
| 2026-04-26 18:18 | 10.68441 | -67.08019 | 5978 ft | 286 kts | 308° |
| 2026-04-26 18:18 | 10.69679 | -67.09615 | 6868 ft | 290 kts | 309° |
| 2026-04-26 18:18 | 10.70951 | -67.11228 | 7727 ft | 294 kts | 309° |
| 2026-04-26 18:19 | 10.72224 | -67.12835 | 8541 ft | 297 kts | 309° |
| 2026-04-26 18:19 | 10.73543 | -67.14499 | 9337 ft | 300 kts | 309° |
| 2026-04-26 18:19 | 10.74867 | -67.16169 | 10069 ft | 306 kts | 309° |
| 2026-04-26 18:19 | 10.76247 | -67.17908 | 10365 ft | 328 kts | 309° |
| 2026-04-26 18:20 | 10.77732 | -67.19780 | 10561 ft | 350 kts | 309° |
| 2026-04-26 18:20 | 10.79260 | -67.21714 | 11077 ft | 358 kts | 308° |
| 2026-04-26 18:20 | 10.80511 | -67.23943 | 11724 ft | 362 kts | 290° |
| 2026-04-26 18:20 | 10.80920 | -67.25586 | 12166 ft | 363 kts | 277° |
| 2026-04-26 18:21 | 10.80613 | -67.28965 | 13029 ft | 366 kts | 250° |
| 2026-04-26 18:21 | 10.79669 | -67.31368 | 13668 ft | 368 kts | 246° |
| 2026-04-26 18:21 | 10.78675 | -67.33782 | 14291 ft | 371 kts | 246° |
| 2026-04-26 18:21 | 10.77674 | -67.36206 | 14883 ft | 374 kts | 246° |
| 2026-04-26 18:22 | 10.76664 | -67.38662 | 15465 ft | 378 kts | 246° |
| 2026-04-26 18:22 | 10.75652 | -67.41137 | 16049 ft | 379 kts | 246° |
| 2026-04-26 18:22 | 10.74639 | -67.43618 | 16618 ft | 382 kts | 246° |
| 2026-04-26 18:22 | 10.73616 | -67.46128 | 17164 ft | 385 kts | 246° |
| 2026-04-26 18:23 | 10.72588 | -67.48660 | 17698 ft | 389 kts | 246° |
| 2026-04-26 18:23 | 10.71552 | -67.51204 | 18221 ft | 392 kts | 246° |
| 2026-04-26 18:23 | 10.70505 | -67.53775 | 18732 ft | 394 kts | 246° |
| 2026-04-26 18:23 | 10.69452 | -67.56358 | 19221 ft | 398 kts | 246° |
| 2026-04-26 18:24 | 10.68387 | -67.58972 | 19717 ft | 401 kts | 246° |
| 2026-04-26 18:24 | 10.67314 | -67.61605 | 20199 ft | 404 kts | 246° |
| 2026-04-26 18:24 | 10.66232 | -67.64249 | 20666 ft | 407 kts | 246° |
| 2026-04-26 18:24 | 10.65136 | -67.66922 | 21123 ft | 411 kts | 246° |
| 2026-04-26 18:25 | 10.64034 | -67.69614 | 21574 ft | 413 kts | 246° |
| 2026-04-26 18:25 | 10.62933 | -67.72308 | 22043 ft | 414 kts | 246° |
| 2026-04-26 18:25 | 10.61828 | -67.75021 | 22460 ft | 416 kts | 246° |
| 2026-04-26 18:25 | 10.60717 | -67.77739 | 22845 ft | 419 kts | 246° |
| 2026-04-26 18:26 | 10.59594 | -67.80483 | 23216 ft | 421 kts | 246° |
| 2026-04-26 18:26 | 10.58465 | -67.83243 | 23572 ft | 423 kts | 246° |
| 2026-04-26 18:26 | 10.57334 | -67.86009 | 23921 ft | 426 kts | 246° |
| 2026-04-26 18:26 | 10.56193 | -67.88800 | 24260 ft | 428 kts | 246° |
| 2026-04-26 18:27 | 10.55048 | -67.91606 | 24576 ft | 431 kts | 246° |
| 2026-04-26 18:27 | 10.53897 | -67.94419 | 24906 ft | 433 kts | 246° |
| 2026-04-26 18:27 | 10.52735 | -67.97256 | 25235 ft | 435 kts | 246° |
| 2026-04-26 18:27 | 10.51570 | -68.00097 | 25562 ft | 438 kts | 246° |
| 2026-04-26 18:28 | 10.50397 | -68.02961 | 25874 ft | 439 kts | 246° |
| 2026-04-26 18:28 | 10.49220 | -68.05832 | 25981 ft | 438 kts | 246° |
| 2026-04-26 18:28 | 10.48143 | -68.08702 | 25999 ft | 435 kts | 252° |
| 2026-04-26 18:28 | 10.47271 | -68.11643 | 25997 ft | 434 kts | 252° |
| 2026-04-26 18:29 | 10.46410 | -68.14585 | 25997 ft | 434 kts | 252° |
| 2026-04-26 18:29 | 10.45556 | -68.17517 | 25999 ft | 434 kts | 252° |
| 2026-04-26 18:29 | 10.44711 | -68.20417 | 25998 ft | 433 kts | 252° |
| 2026-04-26 18:29 | 10.43842 | -68.23384 | 25999 ft | 433 kts | 252° |
| 2026-04-26 18:30 | 10.42990 | -68.26279 | 25996 ft | 433 kts | 252° |
| 2026-04-26 18:30 | 10.42123 | -68.29213 | 25999 ft | 433 kts | 252° |
| 2026-04-26 18:30 | 10.41248 | -68.32176 | 25997 ft | 434 kts | 252° |
| 2026-04-26 18:30 | 10.40392 | -68.35071 | 25994 ft | 433 kts | 251° |
| 2026-04-26 18:31 | 10.39528 | -68.37992 | 25996 ft | 433 kts | 252° |
| 2026-04-26 18:31 | 10.38668 | -68.40925 | 25993 ft | 433 kts | 252° |
| 2026-04-26 18:31 | 10.37810 | -68.43856 | 25991 ft | 432 kts | 252° |
| 2026-04-26 18:31 | 10.36952 | -68.46776 | 25990 ft | 432 kts | 252° |
| 2026-04-26 18:32 | 10.36088 | -68.49703 | 25989 ft | 432 kts | 252° |
| 2026-04-26 18:32 | 10.35223 | -68.52632 | 25988 ft | 433 kts | 252° |
| 2026-04-26 18:32 | 10.34358 | -68.55554 | 25752 ft | 432 kts | 252° |
| 2026-04-26 18:32 | 10.33496 | -68.58464 | 25138 ft | 429 kts | 252° |
| 2026-04-26 18:33 | 10.32641 | -68.61350 | 24537 ft | 426 kts | 252° |
| 2026-04-26 18:33 | 10.31792 | -68.64221 | 23956 ft | 422 kts | 252° |
| 2026-04-26 18:33 | 10.30950 | -68.67069 | 23384 ft | 419 kts | 252° |
| 2026-04-26 18:33 | 10.30129 | -68.69885 | 22830 ft | 415 kts | 252° |
| 2026-04-26 18:34 | 10.29314 | -68.72683 | 22292 ft | 411 kts | 252° |
| 2026-04-26 18:34 | 10.28473 | -68.75445 | 21769 ft | 407 kts | 251° |
| 2026-04-26 18:34 | 10.27600 | -68.78161 | 21258 ft | 403 kts | 250° |
| 2026-04-26 18:34 | 10.26697 | -68.80846 | 20757 ft | 400 kts | 250° |
| 2026-04-26 18:35 | 10.25791 | -68.83490 | 20252 ft | 395 kts | 249° |
| 2026-04-26 18:35 | 10.24887 | -68.86115 | 19746 ft | 391 kts | 249° |
| 2026-04-26 18:35 | 10.23993 | -68.88714 | 19235 ft | 387 kts | 249° |
| 2026-04-26 18:35 | 10.23114 | -68.91278 | 18730 ft | 383 kts | 250° |
| 2026-04-26 18:36 | 10.22247 | -68.93827 | 18205 ft | 380 kts | 250° |
| 2026-04-26 18:36 | 10.21394 | -68.96354 | 17681 ft | 376 kts | 250° |
| 2026-04-26 18:36 | 10.20556 | -68.98846 | 17149 ft | 372 kts | 250° |
| 2026-04-26 18:36 | 10.19719 | -69.01327 | 16618 ft | 369 kts | 250° |
| 2026-04-26 18:37 | 10.18891 | -69.03779 | 16077 ft | 367 kts | 250° |
| 2026-04-26 18:37 | 10.18064 | -69.06218 | 15540 ft | 363 kts | 250° |
| 2026-04-26 18:37 | 10.17244 | -69.08637 | 15008 ft | 361 kts | 250° |
| 2026-04-26 18:37 | 10.16432 | -69.11028 | 14475 ft | 358 kts | 250° |
| 2026-04-26 18:38 | 10.15621 | -69.13407 | 13959 ft | 355 kts | 250° |
| 2026-04-26 18:38 | 10.14823 | -69.15766 | 13478 ft | 351 kts | 250° |
| 2026-04-26 18:38 | 10.14030 | -69.18095 | 12956 ft | 347 kts | 249° |
| 2026-04-26 18:38 | 10.13231 | -69.20412 | 12420 ft | 347 kts | 250° |
| 2026-04-26 18:39 | 10.12462 | -69.22713 | 11898 ft | 344 kts | 250° |
| 2026-04-26 18:39 | 10.11692 | -69.25009 | 11368 ft | 346 kts | 249° |
| 2026-04-26 18:39 | 10.10902 | -69.27310 | 10801 ft | 346 kts | 250° |
| 2026-04-26 18:39 | 10.10113 | -69.29597 | 10465 ft | 337 kts | 250° |
| 2026-04-26 18:40 | 10.09364 | -69.31798 | 10337 ft | 323 kts | 250° |
| 2026-04-26 18:40 | 10.08662 | -69.33900 | 10213 ft | 310 kts | 251° |
| 2026-04-26 18:40 | 10.08109 | -69.35993 | 10011 ft | 303 kts | 256° |
| 2026-04-26 18:40 | 10.07676 | -69.38088 | 9700 ft | 302 kts | 258° |
| 2026-04-26 18:41 | 10.07249 | -69.40154 | 9501 ft | 295 kts | 259° |
| 2026-04-26 18:41 | 10.06829 | -69.42165 | 9366 ft | 286 kts | 258° |
| 2026-04-26 18:41 | 10.06430 | -69.44108 | 9243 ft | 278 kts | 258° |
| 2026-04-26 18:41 | 10.06044 | -69.45995 | 9129 ft | 267 kts | 258° |
| 2026-04-26 18:42 | 10.05673 | -69.47803 | 8969 ft | 258 kts | 258° |
| 2026-04-26 18:42 | 10.04989 | -69.49490 | 8328 ft | 262 kts | 233° |
| 2026-04-26 18:42 | 10.03618 | -69.50691 | 7683 ft | 265 kts | 201° |
| 2026-04-26 18:42 | 10.01802 | -69.50894 | 7015 ft | 270 kts | 166° |
| 2026-04-26 18:43 | 10.00184 | -69.50000 | 6294 ft | 275 kts | 131° |
| 2026-04-26 18:43 | 9.99339 | -69.48287 | 5662 ft | 275 kts | 96° |
| 2026-04-26 18:43 | 9.99610 | -69.46408 | 5116 ft | 273 kts | 64° |
| 2026-04-26 18:43 | 10.00555 | -69.44721 | 4529 ft | 277 kts | 58° |
| 2026-04-26 18:44 | 10.01539 | -69.43042 | 3959 ft | 278 kts | 59° |
| 2026-04-26 18:44 | 10.02530 | -69.41364 | 3724 ft | 271 kts | 59° |
| 2026-04-26 18:44 | 10.03496 | -69.39690 | 3030 ft | 281 kts | 63° |
| 2026-04-26 18:44 | 10.04117 | -69.37781 | 2581 ft | 276 kts | 79° |
| 2026-04-26 18:45 | 10.04312 | -69.36032 | 3463 ft | 231 kts | 86° |
| 2026-04-26 18:45 | 10.04444 | -69.34466 | 4133 ft | 217 kts | 84° |
| 2026-04-26 18:45 | 10.04783 | -69.33054 | 5125 ft | 199 kts | 55° |
| 2026-04-26 18:45 | 10.05887 | -69.32239 | 5619 ft | 211 kts | 14° |
| 2026-04-26 18:46 | 10.07392 | -69.32385 | 5247 ft | 228 kts | 335° |
| 2026-04-26 18:46 | 10.08585 | -69.33453 | 4862 ft | 234 kts | 302° |
| 2026-04-26 18:46 | 10.09135 | -69.35003 | 4506 ft | 236 kts | 282° |
| 2026-04-26 18:46 | 10.09268 | -69.36082 | 4763 ft | 226 kts | 275° |
| 2026-04-26 18:47 | 10.09204 | -69.37668 | 4945 ft | 230 kts | 262° |
| 2026-04-26 18:47 | 10.08816 | -69.39239 | 5087 ft | 229 kts | 250° |
| 2026-04-26 18:47 | 10.08117 | -69.40704 | 5243 ft | 227 kts | 241° |
| 2026-04-26 18:47 | 10.07391 | -69.42117 | 5321 ft | 229 kts | 245° |
| 2026-04-26 18:48 | 10.06772 | -69.43610 | 5345 ft | 228 kts | 251° |
| 2026-04-26 18:48 | 10.06354 | -69.45115 | 5284 ft | 217 kts | 259° |
| 2026-04-26 18:48 | 10.06117 | -69.46568 | 5271 ft | 198 kts | 263° |
| 2026-04-26 18:48 | 10.05884 | -69.47864 | 5147 ft | 180 kts | 247° |
| 2026-04-26 18:49 | 10.05099 | -69.48747 | 5097 ft | 168 kts | 207° |
| 2026-04-26 18:49 | 10.03988 | -69.48908 | 4896 ft | 162 kts | 164° |
| 2026-04-26 18:49 | 10.03114 | -69.48298 | 4873 ft | 155 kts | 119° |
| 2026-04-26 18:49 | 10.02814 | -69.47248 | 4816 ft | 157 kts | 95° |
| 2026-04-26 18:50 | 10.02766 | -69.46154 | 4572 ft | 155 kts | 88° |
| 2026-04-26 18:50 | 10.02841 | -69.45067 | 4299 ft | 154 kts | 84° |
| 2026-04-26 18:50 | 10.02992 | -69.43995 | 4089 ft | 153 kts | 81° |
| 2026-04-26 18:50 | 10.03168 | -69.42936 | 3943 ft | 154 kts | 81° |
| 2026-04-26 18:51 | 10.03336 | -69.41868 | 3667 ft | 153 kts | 81° |
| 2026-04-26 18:51 | 10.03489 | -69.40807 | 3282 ft | 152 kts | 81° |
| 2026-04-26 18:51 | 10.03649 | -69.39753 | 2926 ft | 150 kts | 81° |
| 2026-04-26 18:51 | 10.03818 | -69.38708 | 2669 ft | 150 kts | 79° |
| 2026-04-26 18:52 | 10.03983 | -69.37669 | 2279 ft | 148 kts | 82° |
| 2026-04-26 18:52 | 10.04145 | -69.36636 | 2063 ft | 147 kts | 80° |
| 2026-04-26 18:52 | 10.04276 | -69.35745 | 2048 ft | 104 kts | 81° |
| 2026-04-26 18:52 | 10.04361 | -69.35193 | 2040 ft | 55 kts | 81° |
| 2026-04-26 18:53 | 10.04397 | -69.34948 | 2041 ft | 29 kts | 84° |
| 2026-04-26 18:53 | 10.04427 | -69.34737 | 2040 ft | 28 kts | 79° |
| 2026-04-26 18:53 | 10.04467 | -69.34637 | 2040 ft | 13 kts | 28° |
| 2026-04-26 18:53 | 10.04545 | -69.34610 | 2043 ft | 9 kts | 360° |
| 2026-04-26 18:54 | 10.04598 | -69.34634 | 2047 ft | 10 kts | 313° |
| 2026-04-26 18:54 | 10.04614 | -69.34700 | 2047 ft | 11 kts | 266° |
| 2026-04-26 18:54 | 10.04601 | -69.34780 | 2047 ft | 12 kts | 261° |
| 2026-04-26 18:54 | 10.04587 | -69.34873 | 2048 ft | 14 kts | 262° |
| 2026-04-26 18:55 | 10.04572 | -69.34976 | 2048 ft | 16 kts | 262° |
| 2026-04-26 18:55 | 10.04555 | -69.35090 | 2048 ft | 17 kts | 260° |
| 2026-04-26 18:55 | 10.04534 | -69.35215 | 2051 ft | 19 kts | 261° |
| 2026-04-26 18:55 | 10.04513 | -69.35352 | 2048 ft | 20 kts | 260° |
| 2026-04-26 18:56 | 10.04491 | -69.35497 | 2048 ft | 22 kts | 261° |
| 2026-04-26 18:56 | 10.04466 | -69.35658 | 2052 ft | 23 kts | 261° |
| 2026-04-26 18:56 | 10.04445 | -69.35796 | 2048 ft | 16 kts | 261° |
| 2026-04-26 18:56 | 10.04429 | -69.35907 | 2049 ft | 16 kts | 261° |
| 2026-04-26 18:57 | 10.04419 | -69.35980 | 2048 ft | 5 kts | 278° |
| 2026-04-26 18:57 | 10.04438 | -69.35994 | 2049 ft | 5 kts | 337° |
| 2026-04-26 18:57 | 10.04490 | -69.36004 | 2051 ft | 6 kts | 351° |
| 2026-04-26 18:57 | 10.04517 | -69.36008 | 2049 ft | 2 kts | 351° |
| 2026-04-26 18:58 | 10.04525 | -69.36009 | 2049 ft | 0 kts | 351° |
| 2026-04-26 19:00 | 10.04525 | -69.36010 | 2049 ft | 0 kts | 351° |